createdAt,value
2019-05-17T00:00:07.440Z,32.63
2019-05-17T00:02:37.389Z,31.97
2019-05-17T00:05:06.865Z,29.97
2019-05-17T00:07:38.181Z,32.77
2019-05-17T00:10:06.896Z,34.87
2019-05-17T00:12:36.753Z,34.33
2019-05-17T00:15:07.183Z,34.43
2019-05-17T00:17:37.744Z,33.90
2019-05-17T00:20:06.394Z,33.77
2019-05-17T00:22:36.597Z,35.53
2019-05-17T00:25:07.474Z,37.33
2019-05-17T00:27:36.771Z,36.17
2019-05-17T00:30:06.732Z,34.87
2019-05-17T00:32:36.865Z,35.27
2019-05-17T00:35:07.266Z,36.10
2019-05-17T00:37:37.269Z,37.37
2019-05-17T00:40:07.312Z,35.73
2019-05-17T00:42:37.217Z,40.07
2019-05-17T00:45:07.212Z,38.97
2019-05-17T00:47:37.453Z,37.43
2019-05-17T00:50:07.462Z,40.33
2019-05-17T00:52:36.904Z,39.20
2019-05-17T00:55:06.891Z,36.27
2019-05-17T00:57:36.939Z,40.20
2019-05-17T01:00:09.297Z,38.97
2019-05-17T01:02:37.413Z,40.43
2019-05-17T01:05:06.866Z,43.30
2019-05-17T01:07:37.748Z,40.80
2019-05-17T01:10:07.072Z,39.37
2019-05-17T01:12:36.573Z,37.23
2019-05-17T01:15:07.420Z,39.73
2019-05-17T01:17:36.564Z,39.13
2019-05-17T01:20:07.908Z,38.10
2019-05-17T01:22:36.715Z,40.07
2019-05-17T01:25:06.450Z,40.57
2019-05-17T01:27:35.352Z,39.20
2019-05-17T01:30:06.684Z,38.77
2019-05-17T01:32:37.191Z,36.07
2019-05-17T01:35:07.118Z,38.27
2019-05-17T01:37:36.952Z,40.20
2019-05-17T01:40:06.730Z,40.63
2019-05-17T01:42:37.294Z,39.60
2019-05-17T01:45:07.292Z,42.40
2019-05-17T01:47:36.909Z,38.77
2019-05-17T01:50:06.901Z,42.17
2019-05-17T01:52:36.981Z,43.37
2019-05-17T01:55:06.713Z,43.27
2019-05-17T01:57:37.106Z,42.27
2019-05-17T02:00:06.556Z,40.07
2019-05-17T02:02:38.981Z,40.80
2019-05-17T02:05:07.379Z,42.40
2019-05-17T02:07:37.310Z,43.20
2019-05-17T02:10:07.446Z,43.57
2019-05-17T02:12:37.198Z,44.10
2019-05-17T02:15:07.433Z,43.10
2019-05-17T02:17:37.380Z,44.37
2019-05-17T02:20:06.462Z,42.93
2019-05-17T02:22:36.726Z,44.77
2019-05-17T02:25:07.260Z,41.10
2019-05-17T02:27:40.861Z,44.97
2019-05-17T02:30:13.647Z,44.80
2019-05-17T02:32:42.752Z,42.67
2019-05-17T02:35:13.756Z,41.60
2019-05-17T02:37:43.164Z,41.47
2019-05-17T02:40:10.084Z,40.60
2019-05-17T02:42:38.226Z,44.07
2019-05-17T02:45:06.713Z,43.43
2019-05-17T02:47:34.850Z,40.70
2019-05-17T02:50:05.545Z,39.47
2019-05-17T02:52:33.498Z,38.33
2019-05-17T02:55:04.056Z,38.67
2019-05-17T02:57:34.428Z,40.57
2019-05-17T03:00:04.314Z,39.27
2019-05-17T03:02:34.060Z,39.17
2019-05-17T03:05:03.976Z,37.43
2019-05-17T03:07:32.587Z,36.10
2019-05-17T03:10:13.646Z,36.30
2019-05-17T03:12:32.995Z,34.57
2019-05-17T03:15:04.004Z,33.10
2019-05-17T03:17:33.531Z,31.93
2019-05-17T03:20:04.015Z,28.97
2019-05-17T03:22:33.218Z,28.20
2019-05-17T03:25:03.341Z,27.77
2019-05-17T03:27:33.493Z,27.87
2019-05-17T03:30:04.082Z,28.97
2019-05-17T03:32:36.066Z,27.40
2019-05-17T03:35:06.062Z,26.83
2019-05-17T03:37:36.721Z,26.33
2019-05-17T03:40:04.675Z,26.93
2019-05-17T03:42:32.857Z,28.50
2019-05-17T03:45:02.840Z,26.90
2019-05-17T03:47:33.186Z,27.47
2019-05-17T03:50:03.059Z,26.67
2019-05-17T03:52:33.095Z,27.90
2019-05-17T03:55:03.552Z,27.40
2019-05-17T03:57:32.122Z,26.80
2019-05-17T04:00:03.519Z,26.33
2019-05-17T04:02:32.458Z,26.63
2019-05-17T04:04:59.460Z,23.30
2019-05-17T04:07:27.579Z,25.00
2019-05-17T04:09:55.718Z,25.63
2019-05-17T04:12:23.834Z,23.27
2019-05-17T04:14:53.377Z,24.20
2019-05-17T04:17:22.726Z,21.73
2019-05-17T04:19:53.370Z,21.17
2019-05-17T04:22:23.629Z,20.50
2019-05-17T04:24:52.516Z,19.30
2019-05-17T04:27:22.966Z,18.07
2019-05-17T04:29:53.278Z,17.50
2019-05-17T04:32:23.225Z,17.00
2019-05-17T04:34:52.596Z,17.17
2019-05-17T04:37:22.830Z,15.80
2019-05-17T04:39:52.500Z,16.37
2019-05-17T04:42:22.739Z,14.57
2019-05-17T04:44:52.708Z,15.90
2019-05-17T04:47:23.004Z,13.77
2019-05-17T04:49:53.324Z,15.53
2019-05-17T04:52:22.544Z,16.50
2019-05-17T04:54:53.365Z,15.87
2019-05-17T04:57:19.534Z,16.47
2019-05-17T04:59:47.905Z,16.03
2019-05-17T05:02:16.095Z,14.50
2019-05-17T05:04:44.227Z,16.50
2019-05-17T05:07:13.695Z,15.97
2019-05-17T05:09:42.974Z,15.63
2019-05-17T05:12:12.513Z,15.40
2019-05-17T05:14:43.129Z,14.37
2019-05-17T05:17:12.811Z,13.97
2019-05-17T05:19:42.223Z,13.83
2019-05-17T05:22:13.471Z,14.60
2019-05-17T05:24:42.353Z,14.90
2019-05-17T05:27:11.626Z,14.67
2019-05-17T05:29:41.945Z,14.97
2019-05-17T05:32:11.811Z,13.87
2019-05-17T05:34:42.966Z,14.23
2019-05-17T05:37:12.531Z,13.20
2019-05-17T05:39:41.463Z,14.43
2019-05-17T05:42:11.609Z,13.73
2019-05-17T05:44:41.441Z,13.60
2019-05-17T05:47:11.473Z,12.97
2019-05-17T05:49:39.296Z,14.37
2019-05-17T05:52:07.766Z,14.83
2019-05-17T05:54:35.977Z,12.70
2019-05-17T05:57:04.177Z,13.17
2019-05-17T05:59:35.283Z,13.67
2019-05-17T06:02:02.217Z,13.67
2019-05-17T06:04:31.803Z,14.03
2019-05-17T06:07:00.153Z,14.13
2019-05-17T06:09:28.284Z,12.73
2019-05-17T06:11:56.400Z,11.03
2019-05-17T06:14:24.547Z,12.60
2019-05-17T06:16:52.670Z,13.03
2019-05-17T06:19:22.389Z,13.00
2019-05-17T06:21:52.015Z,12.47
2019-05-17T06:24:22.522Z,13.97
2019-05-17T06:26:52.534Z,13.50
2019-05-17T06:29:22.178Z,13.07
2019-05-17T06:31:51.852Z,13.50
2019-05-17T06:34:22.180Z,13.57
2019-05-17T06:36:52.629Z,13.53
2019-05-17T06:39:22.421Z,12.07
2019-05-17T06:41:52.108Z,11.40
2019-05-17T06:44:21.649Z,11.40
2019-05-17T06:46:51.909Z,10.27
2019-05-17T06:49:22.268Z,10.13
2019-05-17T06:51:51.635Z,10.67
2019-05-17T06:54:21.593Z,9.93
2019-05-17T06:56:49.831Z,9.83
2019-05-17T06:59:17.971Z,10.03
2019-05-17T07:01:46.155Z,9.53
2019-05-17T07:04:14.297Z,8.60
2019-05-17T07:06:42.404Z,8.13
2019-05-17T07:09:10.513Z,8.73
2019-05-17T07:11:39.795Z,8.27
2019-05-17T07:14:09.437Z,8.13
2019-05-17T07:16:39.651Z,7.77
2019-05-17T07:19:07.564Z,8.10
2019-05-17T07:21:35.691Z,8.20
2019-05-17T07:24:03.962Z,8.90
2019-05-17T07:26:32.193Z,7.10
2019-05-17T07:29:00.326Z,6.80
2019-05-17T07:31:29.796Z,6.03
2019-05-17T07:33:59.821Z,5.03
2019-05-17T07:36:30.479Z,6.13
2019-05-17T07:38:57.837Z,5.53
2019-05-17T07:41:26.028Z,6.23
2019-05-17T07:43:54.136Z,6.50
2019-05-17T07:46:22.336Z,6.77
2019-05-17T07:48:50.498Z,7.53
2019-05-17T07:51:19.475Z,7.53
2019-05-17T07:53:49.540Z,7.30
2019-05-17T07:56:19.996Z,7.60
2019-05-17T07:58:49.508Z,8.27
2019-05-17T08:01:17.584Z,6.67
2019-05-17T08:03:45.690Z,6.50
2019-05-17T08:06:13.793Z,6.57
2019-05-17T08:08:41.928Z,5.90
2019-05-17T08:11:10.585Z,6.33
2019-05-17T08:13:39.880Z,6.80
2019-05-17T08:16:10.128Z,6.80
2019-05-17T08:18:40.096Z,6.20
2019-05-17T08:21:10.155Z,5.63
2019-05-17T08:23:40.046Z,4.53
2019-05-17T08:26:10.489Z,5.73
2019-05-17T08:28:40.216Z,5.53
2019-05-17T08:31:09.761Z,6.13
2019-05-17T08:33:37.508Z,5.60
2019-05-17T08:36:05.641Z,4.90
2019-05-17T08:38:33.749Z,5.77
2019-05-17T08:41:01.894Z,5.60
2019-05-17T08:43:39.545Z,5.77
2019-05-17T08:46:02.112Z,5.93
2019-05-17T08:48:30.476Z,4.77
2019-05-17T08:51:00.132Z,4.07
2019-05-17T08:53:30.444Z,4.07
2019-05-17T08:56:00.742Z,3.77
2019-05-17T08:58:29.748Z,4.20
2019-05-17T09:01:00.233Z,3.60
2019-05-17T09:03:30.153Z,3.77
2019-05-17T09:06:01.465Z,3.30
2019-05-17T09:08:29.746Z,4.53
2019-05-17T09:11:00.080Z,4.33
2019-05-17T09:13:27.216Z,4.07
2019-05-17T09:15:55.325Z,4.37
2019-05-17T09:18:23.461Z,3.80
2019-05-17T09:20:51.857Z,3.00
2019-05-17T09:23:19.989Z,2.57
2019-05-17T09:25:50.058Z,2.50
2019-05-17T09:28:20.319Z,2.57
2019-05-17T09:30:50.538Z,2.37
2019-05-17T09:33:19.212Z,2.20
2019-05-17T09:35:49.795Z,2.27
2019-05-17T09:38:17.321Z,2.30
2019-05-17T09:40:45.737Z,2.10
2019-05-17T09:43:15.033Z,2.00
2019-05-17T09:45:43.721Z,1.97
2019-05-17T09:48:11.968Z,1.93
2019-05-17T09:50:40.227Z,1.93
2019-05-17T09:53:10.784Z,1.70
2019-05-17T09:55:39.737Z,2.17
2019-05-17T09:58:09.910Z,2.77
2019-05-17T10:00:38.335Z,2.67
2019-05-17T10:03:06.482Z,2.83
2019-05-17T10:05:35.275Z,2.57
2019-05-17T10:08:03.538Z,3.37
2019-05-17T10:10:31.652Z,3.17
2019-05-17T10:13:00.305Z,2.43
2019-05-17T10:15:30.096Z,2.17
2019-05-17T10:18:00.658Z,1.93
2019-05-17T10:20:29.284Z,2.00
2019-05-17T10:22:59.657Z,2.03
2019-05-17T10:25:29.434Z,1.97
2019-05-17T10:27:57.324Z,2.37
2019-05-17T10:30:25.515Z,1.93
2019-05-17T10:32:53.633Z,2.57
2019-05-17T10:35:21.836Z,1.97
2019-05-17T10:37:50.689Z,1.87
2019-05-17T10:40:20.808Z,1.60
2019-05-17T10:42:49.995Z,1.30
2019-05-17T10:45:19.849Z,1.60
2019-05-17T10:47:50.335Z,1.83
2019-05-17T10:50:20.549Z,1.77
2019-05-17T10:52:49.015Z,2.20
2019-05-17T10:55:20.396Z,1.80
2019-05-17T10:57:49.983Z,2.27
2019-05-17T11:00:19.724Z,1.97
2019-05-17T11:02:50.315Z,2.40
2019-05-17T11:05:20.129Z,2.30
2019-05-17T11:07:49.801Z,3.00
2019-05-17T11:10:19.453Z,2.53
2019-05-17T11:12:47.732Z,2.37
2019-05-17T11:15:15.910Z,2.47
2019-05-17T11:17:44.036Z,2.70
2019-05-17T11:20:12.225Z,2.50
2019-05-17T11:22:40.361Z,3.00
2019-05-17T11:25:08.568Z,2.53
2019-05-17T11:27:36.813Z,2.80
2019-05-17T11:30:05.393Z,3.20
2019-05-17T11:32:33.837Z,2.83
2019-05-17T11:35:01.949Z,2.87
2019-05-17T11:37:30.173Z,3.00
2019-05-17T11:39:58.300Z,3.00
2019-05-17T11:42:26.522Z,3.03
2019-05-17T11:44:54.714Z,2.87
2019-05-17T11:47:22.859Z,3.00
2019-05-17T11:49:50.962Z,4.10
2019-05-17T11:52:19.073Z,3.60
2019-05-17T11:54:47.294Z,3.40
2019-05-17T11:57:15.452Z,2.53
2019-05-17T11:59:43.586Z,3.00
2019-05-17T12:02:11.769Z,3.70
2019-05-17T12:04:39.982Z,3.50
2019-05-17T12:07:08.084Z,2.97
2019-05-17T12:09:37.841Z,3.20
2019-05-17T12:12:06.481Z,3.67
2019-05-17T12:14:34.608Z,3.70
2019-05-17T12:17:02.718Z,4.13
2019-05-17T12:19:30.895Z,3.60
2019-05-17T12:21:59.069Z,4.47
2019-05-17T12:24:27.175Z,4.10
2019-05-17T12:26:55.316Z,4.50
2019-05-17T12:29:23.415Z,3.93
2019-05-17T12:31:51.549Z,4.73
2019-05-17T12:34:19.652Z,4.60
2019-05-17T12:36:47.774Z,4.60
2019-05-17T12:39:15.884Z,4.60
2019-05-17T12:41:44.401Z,3.97
2019-05-17T12:44:12.553Z,4.90
2019-05-17T12:46:40.727Z,5.87
2019-05-17T12:49:08.937Z,4.90
2019-05-17T12:51:37.137Z,5.03
2019-05-17T12:54:05.338Z,5.70
2019-05-17T12:56:33.506Z,5.43
2019-05-17T12:59:01.642Z,5.20
2019-05-17T13:01:29.901Z,6.67
2019-05-17T13:03:58.037Z,6.60
2019-05-17T13:06:26.222Z,7.47
2019-05-17T13:08:54.612Z,7.80
2019-05-17T13:11:22.735Z,5.90
2019-05-17T13:13:50.855Z,7.63
2019-05-17T13:16:19.450Z,7.67
2019-05-17T13:18:47.697Z,8.10
2019-05-17T13:21:15.817Z,8.90
2019-05-17T13:23:43.920Z,8.27
2019-05-17T13:26:12.065Z,7.63
2019-05-17T13:28:40.172Z,9.10
2019-05-17T13:31:08.311Z,8.40
2019-05-17T13:33:36.416Z,9.63
2019-05-17T13:36:04.923Z,9.93
2019-05-17T13:38:33.050Z,10.37
2019-05-17T13:41:01.193Z,10.93
2019-05-17T13:43:29.325Z,10.30
2019-05-17T13:45:57.518Z,9.73
2019-05-17T13:48:25.728Z,10.63
2019-05-17T13:50:53.930Z,11.77
2019-05-17T13:53:22.464Z,11.70
2019-05-17T13:55:50.597Z,11.07
2019-05-17T13:58:18.715Z,11.13
2019-05-17T14:00:46.875Z,10.10
2019-05-17T14:03:14.997Z,11.80
2019-05-17T14:05:43.425Z,11.73
2019-05-17T14:08:11.647Z,11.50
2019-05-17T14:10:39.764Z,13.77
2019-05-17T14:13:07.901Z,11.67
2019-05-17T14:15:36.021Z,11.77
2019-05-17T14:18:04.468Z,13.53
2019-05-17T14:20:32.577Z,12.93
2019-05-17T14:23:00.712Z,13.83
2019-05-17T14:25:28.917Z,13.80
2019-05-17T14:27:57.725Z,14.33
2019-05-17T14:30:26.126Z,14.17
2019-05-17T14:32:54.258Z,13.30
2019-05-17T14:35:22.382Z,14.87
2019-05-17T14:37:50.513Z,15.77
2019-05-17T14:40:18.713Z,14.43
2019-05-17T14:42:46.924Z,15.20
2019-05-17T14:45:15.217Z,15.37
2019-05-17T14:47:43.371Z,12.03
2019-05-17T14:50:11.598Z,13.87
2019-05-17T14:52:40.104Z,15.10
2019-05-17T14:55:08.379Z,15.23
2019-05-17T14:57:36.586Z,15.33
2019-05-17T15:00:05.550Z,14.93
2019-05-17T15:02:33.925Z,14.13
2019-05-17T15:05:02.832Z,13.80
2019-05-17T15:07:31.494Z,14.97
2019-05-17T15:09:59.699Z,15.20
2019-05-17T15:12:29.013Z,16.40
2019-05-17T15:14:57.660Z,15.13
2019-05-17T15:17:25.862Z,15.83
2019-05-17T15:19:54.097Z,16.43
2019-05-17T15:22:22.279Z,16.70
2019-05-17T15:24:50.442Z,16.17
2019-05-17T15:27:18.627Z,16.37
2019-05-17T15:29:46.769Z,15.70
2019-05-17T15:32:14.948Z,16.40
2019-05-17T15:34:43.173Z,15.67
2019-05-17T15:37:11.508Z,17.33
2019-05-17T15:39:39.770Z,16.60
2019-05-17T15:42:07.975Z,17.00
2019-05-17T15:44:36.092Z,16.63
2019-05-17T15:47:04.299Z,17.50
2019-05-17T15:49:32.412Z,18.63
2019-05-17T15:52:00.552Z,19.13
2019-05-17T15:54:28.672Z,18.90
2019-05-17T15:56:56.837Z,19.80
2019-05-17T15:59:24.962Z,20.43
2019-05-17T16:01:53.124Z,20.07
2019-05-17T16:04:21.313Z,19.30
2019-05-17T16:06:49.477Z,20.40
2019-05-17T16:09:17.669Z,18.90
2019-05-17T16:11:45.820Z,20.90
2019-05-17T16:14:13.939Z,20.63
2019-05-17T16:16:42.058Z,20.97
2019-05-17T16:19:10.257Z,22.40
2019-05-17T16:21:38.376Z,20.77
2019-05-17T16:24:06.524Z,21.60
2019-05-17T16:26:34.643Z,21.17
2019-05-17T16:29:02.990Z,21.80
2019-05-17T16:31:31.113Z,20.60
2019-05-17T16:33:59.235Z,20.33
2019-05-17T16:36:27.360Z,21.40
2019-05-17T16:38:55.495Z,21.63
2019-05-17T16:41:23.604Z,20.83
2019-05-17T16:43:51.744Z,22.40
2019-05-17T16:46:19.937Z,22.73
2019-05-17T16:48:48.076Z,23.77
2019-05-17T16:51:16.217Z,23.17
2019-05-17T16:53:44.393Z,24.37
2019-05-17T16:56:12.554Z,25.33
2019-05-17T16:58:40.708Z,26.90
2019-05-17T17:01:08.941Z,35.23
2019-05-17T17:03:44.414Z,27.77
2019-05-17T17:06:10.338Z,36.50
2019-05-17T17:08:37.302Z,30.40
2019-05-17T17:11:05.553Z,30.10
2019-05-17T17:13:33.767Z,27.40
2019-05-17T17:16:02.138Z,28.07
2019-05-17T17:18:30.681Z,27.73
2019-05-17T17:20:58.814Z,28.00
2019-05-17T17:23:26.958Z,27.97
2019-05-17T17:25:55.106Z,28.30
2019-05-17T17:28:25.465Z,28.90
2019-05-17T17:30:53.305Z,29.87
2019-05-17T17:33:21.764Z,29.10
2019-05-17T17:35:49.905Z,29.77
2019-05-17T17:38:18.028Z,30.40
2019-05-17T17:40:46.220Z,31.73
2019-05-17T17:43:16.040Z,32.33
2019-05-17T17:45:44.228Z,32.80
2019-05-17T17:48:12.688Z,31.97
2019-05-17T17:50:40.888Z,32.83
2019-05-17T17:53:09.091Z,33.37
2019-05-17T17:55:37.201Z,32.23
2019-05-17T17:58:05.407Z,31.90
2019-05-17T18:00:33.606Z,33.67
2019-05-17T18:03:01.739Z,33.37
2019-05-17T18:05:29.862Z,32.77
2019-05-17T18:07:58.064Z,34.23
2019-05-17T18:10:33.463Z,34.27
2019-05-17T18:13:01.800Z,33.13
2019-05-17T18:15:31.468Z,32.67
2019-05-17T18:17:59.860Z,30.97
2019-05-17T18:20:28.013Z,32.47
2019-05-17T18:22:56.193Z,32.10
2019-05-17T18:25:24.324Z,32.77
2019-05-17T18:27:52.443Z,31.33
2019-05-17T18:30:20.649Z,31.10
2019-05-17T18:32:49.064Z,31.77
2019-05-17T18:35:17.259Z,32.63
2019-05-17T18:37:45.371Z,31.37
2019-05-17T18:40:13.513Z,31.87
2019-05-17T18:42:41.642Z,32.23
2019-05-17T18:45:09.856Z,31.97
2019-05-17T18:47:38.038Z,33.67
2019-05-17T18:50:06.521Z,32.17
2019-05-17T18:52:34.656Z,33.17
2019-05-17T18:55:03.560Z,34.77
2019-05-17T18:57:31.724Z,34.80
2019-05-17T18:59:59.909Z,36.17
2019-05-17T19:02:28.075Z,33.70
2019-05-17T19:04:56.247Z,34.30
2019-05-17T19:07:24.488Z,33.87
2019-05-17T19:09:52.977Z,32.43
2019-05-17T19:12:21.132Z,34.83
2019-05-17T19:14:49.312Z,34.33
2019-05-17T19:17:17.552Z,33.83
2019-05-17T19:19:45.664Z,32.87
2019-05-17T19:22:13.796Z,35.63
2019-05-17T19:24:41.907Z,33.97
2019-05-17T19:27:10.027Z,35.13
2019-05-17T19:29:38.169Z,36.27
2019-05-17T19:32:06.292Z,34.73
2019-05-17T19:34:34.423Z,35.00
2019-05-17T19:37:02.921Z,36.43
2019-05-17T19:39:31.212Z,36.53
2019-05-17T19:41:59.325Z,35.63
2019-05-17T19:44:27.459Z,38.10
2019-05-17T19:46:55.572Z,38.63
2019-05-17T19:49:23.689Z,37.53
2019-05-17T19:51:51.829Z,39.07
2019-05-17T19:54:19.943Z,38.33
2019-05-17T19:56:48.356Z,40.60
2019-05-17T19:59:16.468Z,42.40
2019-05-17T20:01:44.906Z,41.40
2019-05-17T20:04:13.018Z,43.43
2019-05-17T20:06:41.153Z,44.13
2019-05-17T20:09:09.308Z,42.97
2019-05-17T20:11:37.455Z,42.77
2019-05-17T20:14:05.708Z,43.17
2019-05-17T20:16:33.850Z,44.03
2019-05-17T20:19:02.045Z,42.80
2019-05-17T20:21:30.185Z,46.47
2019-05-17T20:23:58.375Z,48.20
2019-05-17T20:26:26.507Z,46.63
2019-05-17T20:28:54.645Z,45.83
2019-05-17T20:31:23.086Z,48.40
2019-05-17T20:33:51.220Z,49.87
2019-05-17T20:36:19.408Z,46.57
2019-05-17T20:38:47.539Z,45.07
2019-05-17T20:41:15.660Z,45.60
2019-05-17T20:43:43.810Z,48.00
2019-05-17T20:46:12.330Z,43.40
2019-05-17T20:48:40.460Z,47.20
2019-05-17T20:51:08.579Z,43.17
2019-05-17T20:53:36.714Z,41.30
2019-05-17T20:56:04.833Z,48.87
2019-05-17T20:58:32.975Z,41.13
2019-05-17T21:01:01.089Z,45.50
2019-05-17T21:03:29.230Z,42.90
2019-05-17T21:05:57.348Z,44.33
2019-05-17T21:08:26.847Z,44.60
2019-05-17T21:10:55.153Z,42.50
2019-05-17T21:13:23.295Z,40.13
2019-05-17T21:15:51.408Z,39.10
2019-05-17T21:18:19.529Z,40.40
2019-05-17T21:20:47.668Z,40.07
2019-05-17T21:23:15.784Z,38.00
2019-05-17T21:25:43.991Z,36.87
2019-05-17T21:28:12.103Z,33.50
2019-05-17T21:30:40.240Z,34.80
2019-05-17T21:33:08.343Z,34.87
2019-05-17T21:35:36.485Z,34.40
2019-05-17T21:38:04.591Z,42.93
2019-05-17T21:40:33.040Z,33.63
2019-05-17T21:43:01.165Z,39.93
2019-05-17T21:45:29.352Z,39.40
2019-05-17T21:47:57.504Z,38.60
2019-05-17T21:50:25.619Z,36.50
2019-05-17T21:52:53.754Z,35.50
2019-05-17T21:55:21.874Z,41.37
2019-05-17T21:57:50.027Z,41.17
2019-05-17T22:00:33.902Z,39.00
2019-05-17T22:03:02.040Z,43.80
2019-05-17T22:05:30.164Z,41.53
2019-05-17T22:07:58.272Z,44.73
2019-05-17T22:10:26.500Z,44.03
2019-05-17T22:12:54.621Z,37.70
2019-05-17T22:15:22.760Z,34.63
2019-05-17T22:17:50.930Z,35.90
2019-05-17T22:20:19.363Z,39.37
2019-05-17T22:22:47.491Z,41.37
2019-05-17T22:25:15.626Z,36.57
2019-05-17T22:27:43.736Z,42.07
2019-05-17T22:30:11.956Z,32.27
2019-05-17T22:32:40.065Z,30.67
2019-05-17T22:35:08.256Z,32.27
2019-05-17T22:37:36.490Z,33.30
2019-05-17T22:40:06.244Z,31.50
2019-05-17T22:42:34.379Z,39.50
2019-05-17T22:45:02.501Z,35.47
2019-05-17T22:47:30.649Z,33.53
2019-05-17T22:49:58.768Z,34.93
2019-05-17T22:52:27.254Z,43.57
2019-05-17T22:54:55.451Z,37.73
2019-05-17T22:57:23.572Z,47.33
2019-05-17T22:59:52.460Z,40.50
2019-05-17T23:02:20.605Z,44.60
2019-05-17T23:04:49.131Z,35.47
2019-05-17T23:07:17.245Z,38.27
2019-05-17T23:09:45.460Z,31.67
2019-05-17T23:12:14.487Z,28.03
2019-05-17T23:14:42.625Z,29.57
2019-05-17T23:17:10.746Z,30.97
2019-05-17T23:19:38.891Z,29.63
2019-05-17T23:22:07.010Z,31.30
2019-05-17T23:24:35.432Z,29.70
2019-05-17T23:27:03.558Z,30.47
2019-05-17T23:29:34.620Z,28.83
2019-05-17T23:32:02.745Z,26.47
2019-05-17T23:34:30.942Z,25.23
2019-05-17T23:36:59.067Z,35.73
2019-05-17T23:39:27.195Z,22.03
2019-05-17T23:41:55.332Z,22.47
2019-05-17T23:44:23.519Z,24.30
2019-05-17T23:47:04.767Z,19.67
2019-05-17T23:49:21.561Z,19.60
2019-05-17T23:51:49.703Z,21.70
2019-05-17T23:54:17.812Z,18.93
2019-05-17T23:56:45.923Z,18.63
2019-05-17T23:59:14.056Z,19.37
